Crittenden, NY (14038)

8:24 AM EST on December 11, 2017 (GMT -0500)
Crittenden NY | | Change Station
Active Advisory: Winter Storm Watch Active Notice: Public Information Statement

Elev 850 ft 42.95 °N, 78.48 °W | Updated 10 minutes ago

Overcast
Overcast
22.8 °F
Feels Like 23 °F
N
0.0
Wind Variable Wind from West

Today
High -- | Low -- °F
--% Chance of Precip.
Yesterday
High -- | Low -- °F
Precip. -- in
Pressure 30.03 in
Visibility 9.0 miles
Clouds Scattered Clouds 1500 ft
Overcast 5000 ft
Windchill 23 °F
Dew Point 21 °F
Humidity 92%
Rainfall 0.00 in
Snow Depth Not available.
7:35 AM 4:39 PM
Last Quarter, 37% visible
METAR KBUF 111254Z 35005KT 9SM -SN SCT015 OVC050 M04/M07 A3000 RMK AO2 SLP169 PCPN VRY LGT P0000 T10441067 $
Pressure 30.03 in
Visibility 9.0 miles
Clouds Scattered Clouds 1500 ft
Overcast 5000 ft
Windchill 23 °F
Dew Point 21 °F
Humidity 92%
Rainfall 0.00 in
Snow Depth Not available.
7:35 AM 4:39 PM
Last Quarter, 37% visible
METAR KBUF 111254Z 35005KT 9SM -SN SCT015 OVC050 M04/M07 A3000 RMK AO2 SLP169 PCPN VRY LGT P0000 T10441067 $

Get Your Daily Forecast Email!

Thanks for signing up!

Be on the lookout for a verification email in your inbox.

You'll start receiving severe weather alerts in your inbox..

×

10-Day Weather Forecast

Almanac

Astronomy

Dec. 11, 2017 Rise Set
Actual Time
Civil Twilight
Nautical Twilight
Astronomical Twilight
Moon
Length of Visible Light
Length of Day
Tomorrow will be .
, % of the Moon is Illuminated

Today's Extremes

State Highs State Lows

Community

WunderPhotos

Category 6

Welcome to Category 6. This is the collective home for Weather Underground's featured writeups by Dr. Jeff Masters (right), Bob Henson (left), Chris Burt, and other regular contributors.

Nearby

Air Quality

  Air Quality AQ Index Pollutant
Not available.

Snow Depth

Station Depth Elevation

Earthquake Activity

City Distance Mag. Time & Date
Minimum magnitude displayed is 2.5.

Coastal Water Temperatures

Place Temperature

Stations

Nearby Weather Stations

Station Location Temp. Windchill Dew Point Humidity Wind Precip. Elev Updated Type
                   

Watches & Warnings

Winter Storm Watch
Issued: 3:48 AM EST Dec. 11, 2017 – National Weather Service

... Winter Storm Watch in effect from this evening through
Wednesday afternoon...

* what... heavy snow and blowing snow possible. Travel will be very
difficult. Total snow accumulations of greater than 8 inches
possible.

* Where... Niagara, Orleans, Monroe, Wayne, northern Cayuga,
northern Erie, and Genesee counties.

* When... from this evening through Wednesday afternoon.

* Additional details... winds gusting as high as 45 mph will
cause areas of blowing and drifting snow.

Precautionary/preparedness actions...

Begin needed preparations at home or with your vehicle. Travel
may become difficult, so plan accordingly.



Tma